createdAt,value
2023-05-07T00:03:35.464Z,20.89
2023-05-07T00:06:04.835Z,20.86
2023-05-07T00:08:36.305Z,20.85
2023-05-07T00:11:04.625Z,20.85
2023-05-07T00:13:33.373Z,20.85
2023-05-07T00:16:05.160Z,20.86
2023-05-07T00:18:33.904Z,20.88
2023-05-07T00:21:04.757Z,20.89
2023-05-07T00:23:33.402Z,20.90
2023-05-07T00:26:01.389Z,20.90
2023-05-07T00:28:29.498Z,20.91
2023-05-07T00:30:57.721Z,20.92
2023-05-07T00:33:25.880Z,20.92
2023-05-07T00:35:54.737Z,20.93
2023-05-07T00:38:23.088Z,20.93
2023-05-07T00:40:51.131Z,20.94
2023-05-07T00:43:21.679Z,20.94
2023-05-07T00:45:50.072Z,20.93
2023-05-07T00:48:19.896Z,20.91
2023-05-07T00:50:49.374Z,20.89
2023-05-07T00:53:18.580Z,20.88
2023-05-07T00:55:47.414Z,20.86
2023-05-07T00:58:16.156Z,20.85
2023-05-07T01:00:45.116Z,20.84
2023-05-07T01:03:15.014Z,20.81
2023-05-07T01:05:47.179Z,20.81
2023-05-07T01:08:17.840Z,20.79
2023-05-07T01:10:47.722Z,20.78
2023-05-07T01:13:17.247Z,20.78
2023-05-07T01:15:45.506Z,20.78
2023-05-07T01:18:15.088Z,20.77
2023-05-07T01:20:43.806Z,20.76
2023-05-07T01:23:13.646Z,20.74
2023-05-07T01:25:43.074Z,20.72
2023-05-07T01:28:12.111Z,20.70
2023-05-07T01:30:46.246Z,20.68
2023-05-07T01:33:19.944Z,20.66
2023-05-07T01:35:54.656Z,20.64
2023-05-07T01:38:24.667Z,20.61
2023-05-07T01:40:53.862Z,20.60
2023-05-07T01:43:23.035Z,20.57
2023-05-07T01:45:51.264Z,20.55
2023-05-07T01:48:21.079Z,20.51
2023-05-07T01:50:50.546Z,20.48
2023-05-07T01:53:18.672Z,20.45
2023-05-07T01:55:46.893Z,20.43
2023-05-07T01:58:17.015Z,20.42
2023-05-07T02:00:45.199Z,20.40
2023-05-07T02:03:16.603Z,20.38
2023-05-07T02:05:45.612Z,20.37
2023-05-07T02:08:14.880Z,20.36
2023-05-07T02:10:43.372Z,20.34
2023-05-07T02:13:12.196Z,20.31
2023-05-07T02:15:41.424Z,20.27
2023-05-07T02:18:09.710Z,20.26
2023-05-07T02:20:38.157Z,20.26
2023-05-07T02:23:07.245Z,20.26
2023-05-07T02:25:36.423Z,20.25
2023-05-07T02:28:05.492Z,20.25
2023-05-07T02:30:33.974Z,20.24
2023-05-07T02:33:02.222Z,20.24
2023-05-07T02:35:31.306Z,20.23
2023-05-07T02:37:59.831Z,20.23
2023-05-07T02:40:28.640Z,20.21
2023-05-07T02:42:56.937Z,20.19
2023-05-07T02:45:25.702Z,20.18
2023-05-07T02:47:53.962Z,20.16
2023-05-07T02:50:23.145Z,20.14
2023-05-07T02:52:51.175Z,20.11
2023-05-07T02:55:19.832Z,20.11
2023-05-07T02:57:48.622Z,20.10
2023-05-07T03:00:19.382Z,20.09
2023-05-07T03:02:48.204Z,20.11
2023-05-07T03:05:17.611Z,20.12
2023-05-07T03:07:46.266Z,20.11
2023-05-07T03:10:14.441Z,20.12
2023-05-07T03:12:43.095Z,20.13
2023-05-07T03:15:12.029Z,20.14
2023-05-07T03:17:40.297Z,20.14
2023-05-07T03:20:11.116Z,20.11
2023-05-07T03:22:40.529Z,20.08
2023-05-07T03:25:10.812Z,20.05
2023-05-07T03:27:40.149Z,20.06
2023-05-07T03:30:10.544Z,20.07
2023-05-07T03:32:39.474Z,20.09
2023-05-07T03:35:09.196Z,20.12
2023-05-07T03:37:39.746Z,20.15
2023-05-07T03:40:12.341Z,20.18
2023-05-07T03:42:40.928Z,20.20
2023-05-07T03:45:10.643Z,20.23
2023-05-07T03:47:39.207Z,20.25
2023-05-07T03:50:08.336Z,20.25
2023-05-07T03:52:37.199Z,20.24
2023-05-07T03:55:07.030Z,20.23
2023-05-07T03:57:35.372Z,20.24
2023-05-07T04:00:04.593Z,20.24
2023-05-07T04:02:34.548Z,20.24
2023-05-07T04:05:03.546Z,20.26
2023-05-07T04:07:32.901Z,20.27
2023-05-07T04:10:02.636Z,20.29
2023-05-07T04:12:31.202Z,20.29
2023-05-07T04:14:59.317Z,20.28
2023-05-07T04:17:27.574Z,20.28
2023-05-07T04:19:55.831Z,20.29
2023-05-07T04:22:24.801Z,20.29
2023-05-07T04:24:53.002Z,20.28
2023-05-07T04:27:22.596Z,20.27
2023-05-07T04:29:50.885Z,20.25
2023-05-07T04:32:19.411Z,20.23
2023-05-07T04:34:49.471Z,20.21
2023-05-07T04:37:18.928Z,20.22
2023-05-07T04:39:47.360Z,20.24
2023-05-07T04:42:17.609Z,20.26
2023-05-07T04:44:46.707Z,20.28
2023-05-07T04:47:15.968Z,20.31
2023-05-07T04:49:45.672Z,20.33
2023-05-07T04:52:14.355Z,20.36
2023-05-07T04:54:42.588Z,20.39
2023-05-07T04:57:11.123Z,20.42
2023-05-07T04:59:41.455Z,20.44
2023-05-07T05:02:11.269Z,20.46
2023-05-07T05:04:39.695Z,20.48
2023-05-07T05:07:10.000Z,20.50
2023-05-07T05:09:39.016Z,20.52
2023-05-07T05:12:07.621Z,20.53
2023-05-07T05:14:37.069Z,20.52
2023-05-07T05:17:06.184Z,20.49
2023-05-07T05:19:35.302Z,20.47
2023-05-07T05:22:06.294Z,20.46
2023-05-07T05:24:35.768Z,20.45
2023-05-07T05:27:04.544Z,20.45
2023-05-07T05:29:33.072Z,20.46
2023-05-07T05:32:02.901Z,20.47
2023-05-07T05:34:31.572Z,20.50
2023-05-07T05:37:00.817Z,20.51
2023-05-07T05:39:28.998Z,20.51
2023-05-07T05:41:57.950Z,20.51
2023-05-07T05:44:27.424Z,20.52
2023-05-07T05:46:56.393Z,20.52
2023-05-07T05:49:25.080Z,20.50
2023-05-07T05:51:54.021Z,20.49
2023-05-07T05:54:22.782Z,20.47
2023-05-07T05:56:51.183Z,20.46
2023-05-07T05:59:20.048Z,20.47
2023-05-07T06:01:48.337Z,20.48
2023-05-07T06:04:17.391Z,20.47
2023-05-07T06:06:47.302Z,20.47
2023-05-07T06:09:17.454Z,20.47
2023-05-07T06:11:47.455Z,20.48
2023-05-07T06:14:16.194Z,20.45
2023-05-07T06:16:45.367Z,20.43
2023-05-07T06:19:14.607Z,20.43
2023-05-07T06:21:43.542Z,20.43
2023-05-07T06:24:12.075Z,20.42
2023-05-07T06:26:41.270Z,20.42
2023-05-07T06:29:09.422Z,20.41
2023-05-07T06:31:38.305Z,20.42
2023-05-07T06:34:06.951Z,20.43
2023-05-07T06:36:36.261Z,20.44
2023-05-07T06:39:05.134Z,20.44
2023-05-07T06:41:34.501Z,20.45
2023-05-07T06:44:04.759Z,20.44
2023-05-07T06:46:33.391Z,20.38
2023-05-07T06:49:01.946Z,20.33
2023-05-07T06:51:30.588Z,20.30
2023-05-07T06:53:58.769Z,20.26
2023-05-07T06:56:27.567Z,20.09
2023-05-07T06:58:55.696Z,19.79
2023-05-07T07:01:25.280Z,19.49
2023-05-07T07:03:54.150Z,19.29
2023-05-07T07:06:22.753Z,19.18
2023-05-07T07:08:51.517Z,19.10
2023-05-07T07:11:19.978Z,19.04
2023-05-07T07:13:48.613Z,19.01
2023-05-07T07:16:18.296Z,19.00
2023-05-07T07:18:46.960Z,19.01
2023-05-07T07:21:15.304Z,19.06
2023-05-07T07:23:43.891Z,19.03
2023-05-07T07:26:12.470Z,18.91
2023-05-07T07:28:48.216Z,18.82
2023-05-07T07:31:16.712Z,18.83
2023-05-07T07:33:45.430Z,18.86
2023-05-07T07:36:13.872Z,18.88
2023-05-07T07:38:42.386Z,18.92
2023-05-07T07:41:10.437Z,18.95
2023-05-07T07:43:39.029Z,18.98
2023-05-07T07:46:07.798Z,19.02
2023-05-07T07:48:36.884Z,19.07
2023-05-07T07:51:05.631Z,19.12
2023-05-07T07:53:35.339Z,19.15
2023-05-07T07:56:05.843Z,19.17
2023-05-07T07:58:35.271Z,19.19
2023-05-07T08:01:04.039Z,19.24
2023-05-07T08:03:32.878Z,19.29
2023-05-07T08:06:01.205Z,19.34
2023-05-07T08:08:31.838Z,19.41
2023-05-07T08:11:01.019Z,19.45
2023-05-07T08:13:29.384Z,19.46
2023-05-07T08:15:58.347Z,19.44
2023-05-07T08:18:28.253Z,19.43
2023-05-07T08:20:58.095Z,19.42
2023-05-07T08:23:31.479Z,19.43
2023-05-07T08:26:00.416Z,19.43
2023-05-07T08:28:28.738Z,19.43
2023-05-07T08:30:56.899Z,19.45
2023-05-07T08:33:25.087Z,19.47
2023-05-07T08:35:53.890Z,19.52
2023-05-07T08:38:21.890Z,19.53
2023-05-07T08:40:51.358Z,19.55
2023-05-07T08:43:20.786Z,19.57
2023-05-07T08:45:54.628Z,19.58
2023-05-07T08:48:26.732Z,19.58
2023-05-07T08:50:55.267Z,19.60
2023-05-07T08:53:24.928Z,19.65
2023-05-07T08:55:54.640Z,19.67
2023-05-07T08:58:23.405Z,19.69
2023-05-07T09:00:54.001Z,19.73
2023-05-07T09:03:23.958Z,19.78
2023-05-07T09:05:52.679Z,19.86
2023-05-07T09:08:28.355Z,19.92
2023-05-07T09:10:59.136Z,19.99
2023-05-07T09:13:29.330Z,20.08
2023-05-07T09:15:58.106Z,20.18
2023-05-07T09:18:30.210Z,20.26
2023-05-07T09:20:58.771Z,20.36
2023-05-07T09:23:28.016Z,20.46
2023-05-07T09:26:02.543Z,20.58
2023-05-07T09:28:30.793Z,20.70
2023-05-07T09:30:59.696Z,20.81
2023-05-07T09:33:29.775Z,20.89
2023-05-07T09:35:58.293Z,20.99
2023-05-07T09:38:26.945Z,21.11
2023-05-07T09:41:07.870Z,21.27
2023-05-07T09:43:38.247Z,21.46
2023-05-07T09:46:16.817Z,21.62
2023-05-07T09:48:46.977Z,21.81
2023-05-07T09:51:52.280Z,21.96
2023-05-07T09:54:20.606Z,22.18
2023-05-07T09:56:54.528Z,22.33
2023-05-07T09:59:23.794Z,22.49
2023-05-07T10:01:57.868Z,22.64
2023-05-07T10:04:27.231Z,22.75
2023-05-07T10:06:55.905Z,22.84
2023-05-07T10:09:25.013Z,22.90
2023-05-07T10:11:53.681Z,22.90
2023-05-07T10:14:22.723Z,22.85
2023-05-07T10:16:54.792Z,22.84
2023-05-07T10:19:23.887Z,22.89
2023-05-07T10:21:57.826Z,22.96
2023-05-07T10:24:31.913Z,23.08
2023-05-07T10:27:01.955Z,23.21
2023-05-07T10:29:55.341Z,23.32
2023-05-07T10:32:55.158Z,23.46
2023-05-07T10:35:30.930Z,23.61
2023-05-07T10:37:59.588Z,23.73
2023-05-07T10:40:27.864Z,23.85
2023-05-07T10:43:00.700Z,23.98
2023-05-07T10:45:30.045Z,24.11
2023-05-07T10:50:49.139Z,24.33
2023-05-07T10:53:25.366Z,24.42
2023-05-07T10:56:19.255Z,24.54
2023-05-07T10:58:47.314Z,24.66
2023-05-07T11:01:15.573Z,24.74
2023-05-07T11:04:14.075Z,24.88
2023-05-07T11:06:42.481Z,24.98
2023-05-07T11:09:11.457Z,25.08
2023-05-07T11:11:48.198Z,25.23
2023-05-07T11:14:42.409Z,25.40
2023-05-07T11:17:13.875Z,25.54
2023-05-07T11:19:56.957Z,25.63
2023-05-07T11:22:38.784Z,25.78
2023-05-07T11:25:07.969Z,25.86
2023-05-07T11:27:37.047Z,25.94
2023-05-07T11:30:05.751Z,26.04
2023-05-07T11:32:34.975Z,26.16
2023-05-07T11:35:03.873Z,26.27
2023-05-07T11:37:31.999Z,26.45
2023-05-07T11:40:07.877Z,26.62
2023-05-07T11:42:39.165Z,26.71
2023-05-07T11:45:08.698Z,26.84
2023-05-07T11:47:36.814Z,27.18
2023-05-07T11:50:09.511Z,27.67
2023-05-07T11:52:37.789Z,27.88
2023-05-07T11:55:09.425Z,27.93
2023-05-07T11:57:37.673Z,27.89
2023-05-07T12:00:08.529Z,27.84
2023-05-07T12:02:36.773Z,27.73
2023-05-07T12:05:06.283Z,27.64
2023-05-07T12:07:35.649Z,27.60
2023-05-07T12:10:08.331Z,27.51
2023-05-07T12:12:40.378Z,27.44
2023-05-07T12:15:10.310Z,27.34
2023-05-07T12:17:39.337Z,27.29
2023-05-07T12:20:10.703Z,27.22
2023-05-07T12:22:39.249Z,27.18
2023-05-07T12:25:08.388Z,27.15
2023-05-07T12:27:40.315Z,27.13
2023-05-07T12:30:11.874Z,27.07
2023-05-07T12:32:40.765Z,27.04
2023-05-07T12:35:11.408Z,26.99
2023-05-07T12:37:39.717Z,26.93
2023-05-07T12:40:11.936Z,26.87
2023-05-07T12:42:41.800Z,26.81
2023-05-07T12:45:15.026Z,26.76
2023-05-07T12:47:47.766Z,26.69
2023-05-07T12:50:17.446Z,26.56
2023-05-07T12:52:49.034Z,26.41
2023-05-07T12:55:18.629Z,26.26
2023-05-07T12:57:49.824Z,26.16
2023-05-07T13:00:19.440Z,26.17
2023-05-07T13:02:48.333Z,26.28
2023-05-07T13:05:16.520Z,26.44
2023-05-07T13:07:58.251Z,26.52
2023-05-07T13:10:29.349Z,26.52
2023-05-07T13:12:58.386Z,26.43
2023-05-07T13:15:26.917Z,26.35
2023-05-07T13:17:55.187Z,26.31
2023-05-07T13:20:23.604Z,26.32
2023-05-07T13:22:52.212Z,26.31
2023-05-07T13:25:20.377Z,26.25
2023-05-07T13:27:56.493Z,26.18
2023-05-07T13:30:31.725Z,26.09
2023-05-07T13:33:00.585Z,26.03
2023-05-07T13:35:29.290Z,26.03
2023-05-07T13:37:58.527Z,26.08
2023-05-07T13:40:26.888Z,26.14
2023-05-07T13:42:57.972Z,26.22
2023-05-07T13:45:26.728Z,26.30
2023-05-07T13:47:55.459Z,26.37
2023-05-07T13:50:23.872Z,26.44
2023-05-07T13:52:52.138Z,26.55
2023-05-07T13:55:21.787Z,26.67
2023-05-07T13:57:59.420Z,26.74
2023-05-07T14:00:28.755Z,26.79
2023-05-07T14:02:57.786Z,26.81
2023-05-07T14:05:26.394Z,26.79
2023-05-07T14:07:56.682Z,26.76
2023-05-07T14:10:25.843Z,26.77
2023-05-07T14:12:54.444Z,26.76
2023-05-07T14:15:22.685Z,26.76
2023-05-07T14:17:51.169Z,26.77
2023-05-07T14:20:19.288Z,26.80
2023-05-07T14:22:47.369Z,26.81
2023-05-07T14:25:15.787Z,26.78
2023-05-07T14:27:44.472Z,26.72
2023-05-07T14:30:12.805Z,26.63
2023-05-07T14:32:42.173Z,26.60
2023-05-07T14:35:11.082Z,26.63
2023-05-07T14:37:39.530Z,26.65
2023-05-07T14:40:08.476Z,26.67
2023-05-07T14:42:36.748Z,26.72
2023-05-07T14:45:05.380Z,26.79
2023-05-07T14:47:33.528Z,26.85
2023-05-07T14:50:02.325Z,26.83
2023-05-07T14:52:30.572Z,26.77
2023-05-07T14:54:58.766Z,26.72
2023-05-07T14:57:27.931Z,26.71
2023-05-07T14:59:56.309Z,26.68
2023-05-07T15:02:24.572Z,26.63
2023-05-07T15:04:53.580Z,26.50
2023-05-07T15:07:22.464Z,26.35
2023-05-07T15:09:51.050Z,26.24
2023-05-07T15:12:20.771Z,26.19
2023-05-07T15:14:49.083Z,26.17
2023-05-07T15:17:17.244Z,26.15
2023-05-07T15:19:45.968Z,26.13
2023-05-07T15:22:15.561Z,25.98
2023-05-07T15:24:43.769Z,25.71
2023-05-07T15:27:12.391Z,25.50
2023-05-07T15:29:40.450Z,25.34
2023-05-07T15:32:09.861Z,25.19
2023-05-07T15:34:38.780Z,25.08
2023-05-07T15:37:06.933Z,24.95
2023-05-07T15:39:35.204Z,24.83
2023-05-07T15:42:06.692Z,24.74
2023-05-07T15:44:35.929Z,24.66
2023-05-07T15:47:04.793Z,24.56
2023-05-07T15:49:33.764Z,24.48
2023-05-07T15:52:02.416Z,24.41
2023-05-07T15:54:30.828Z,24.36
2023-05-07T15:56:59.298Z,24.32
2023-05-07T15:59:28.117Z,24.25
2023-05-07T16:01:56.652Z,24.19
2023-05-07T16:04:26.923Z,24.11
2023-05-07T16:06:55.468Z,24.05
2023-05-07T16:09:23.599Z,23.98
2023-05-07T16:11:54.041Z,23.90
2023-05-07T16:14:22.832Z,23.83
2023-05-07T16:16:52.883Z,23.77
2023-05-07T16:19:22.807Z,23.73
2023-05-07T16:21:51.733Z,23.66
2023-05-07T16:24:20.491Z,23.58
2023-05-07T16:26:49.060Z,23.54
2023-05-07T16:29:17.139Z,23.49
2023-05-07T16:31:45.365Z,23.42
2023-05-07T16:34:14.212Z,23.32
2023-05-07T16:36:43.208Z,23.27
2023-05-07T16:39:11.842Z,23.25
2023-05-07T16:41:40.618Z,23.22
2023-05-07T16:44:09.202Z,23.17
2023-05-07T16:46:38.150Z,23.16
2023-05-07T16:49:07.208Z,23.17
2023-05-07T16:51:35.803Z,23.17
2023-05-07T16:54:04.150Z,23.19
2023-05-07T16:56:32.846Z,23.23
2023-05-07T16:59:02.229Z,23.29
2023-05-07T17:01:30.463Z,23.39
2023-05-07T17:03:59.348Z,23.50
2023-05-07T17:06:28.103Z,23.61
2023-05-07T17:08:56.979Z,23.71
2023-05-07T17:11:25.361Z,23.81
2023-05-07T17:13:53.832Z,23.87
2023-05-07T17:16:22.689Z,23.96
2023-05-07T17:18:51.326Z,24.01
2023-05-07T17:21:20.530Z,24.00
2023-05-07T17:23:49.511Z,23.97
2023-05-07T17:26:19.111Z,23.95
2023-05-07T17:28:48.468Z,23.94
2023-05-07T17:31:17.080Z,23.94
2023-05-07T17:33:46.810Z,23.97
2023-05-07T17:36:16.228Z,24.01
2023-05-07T17:38:44.999Z,24.04
2023-05-07T17:41:14.409Z,24.06
2023-05-07T17:43:42.706Z,24.04
2023-05-07T17:46:10.915Z,24.00
2023-05-07T17:48:40.192Z,23.97
2023-05-07T17:51:10.092Z,23.96
2023-05-07T17:53:39.738Z,23.97
2023-05-07T17:56:08.493Z,23.97
2023-05-07T17:58:42.753Z,23.93
2023-05-07T18:01:23.026Z,23.88
2023-05-07T18:03:51.956Z,23.84
2023-05-07T18:06:20.667Z,23.80
2023-05-07T18:08:49.969Z,23.73
2023-05-07T18:11:19.824Z,23.66
2023-05-07T18:13:48.321Z,23.59
2023-05-07T18:16:16.478Z,23.55
2023-05-07T18:18:44.765Z,23.49
2023-05-07T18:21:13.332Z,23.40
2023-05-07T18:23:42.248Z,23.31
2023-05-07T18:26:10.821Z,23.21
2023-05-07T18:28:38.840Z,23.14
2023-05-07T18:31:07.767Z,23.08
2023-05-07T18:33:36.116Z,23.03
2023-05-07T18:36:04.393Z,23.01
2023-05-07T18:38:33.270Z,22.98
2023-05-07T18:41:05.242Z,22.96
2023-05-07T18:43:34.365Z,22.94
2023-05-07T18:46:02.550Z,22.92
2023-05-07T18:48:32.385Z,22.92
2023-05-07T18:51:01.424Z,22.90
2023-05-07T18:53:29.504Z,22.89
2023-05-07T18:55:58.109Z,22.87
2023-05-07T18:58:26.444Z,22.84
2023-05-07T19:00:55.517Z,22.80
2023-05-07T19:03:23.643Z,22.78
2023-05-07T19:05:52.760Z,22.77
2023-05-07T19:08:20.833Z,22.76
2023-05-07T19:10:48.878Z,22.74
2023-05-07T19:13:17.526Z,22.73
2023-05-07T19:15:46.417Z,22.72
2023-05-07T19:18:14.533Z,22.72
2023-05-07T19:20:43.104Z,22.72
2023-05-07T19:23:11.252Z,22.73
2023-05-07T19:25:39.555Z,22.73
2023-05-07T19:28:07.642Z,22.75
2023-05-07T19:30:38.923Z,22.75
2023-05-07T19:33:07.923Z,22.75
2023-05-07T19:35:36.740Z,22.75
2023-05-07T19:38:05.023Z,22.75
2023-05-07T19:40:33.906Z,22.76
2023-05-07T19:43:03.928Z,22.76
2023-05-07T19:45:31.981Z,22.77
2023-05-07T19:48:00.957Z,22.76
2023-05-07T19:50:29.148Z,22.76
2023-05-07T19:52:57.189Z,22.76
2023-05-07T19:55:25.806Z,22.76
2023-05-07T19:57:54.084Z,22.75
2023-05-07T20:00:22.549Z,22.73
2023-05-07T20:02:52.127Z,22.70
2023-05-07T20:05:20.931Z,22.68
2023-05-07T20:07:49.153Z,22.67
2023-05-07T20:10:17.941Z,22.64
2023-05-07T20:12:46.543Z,22.61
2023-05-07T20:15:14.688Z,22.60
2023-05-07T20:17:43.124Z,22.58
2023-05-07T20:20:12.043Z,22.57
2023-05-07T20:22:40.330Z,22.57
2023-05-07T20:25:10.425Z,22.55
2023-05-07T20:27:38.499Z,22.53
2023-05-07T20:30:08.769Z,22.51
2023-05-07T20:32:37.402Z,22.49
2023-05-07T20:35:06.037Z,22.48
2023-05-07T20:37:34.424Z,22.47
2023-05-07T20:40:03.463Z,22.47
2023-05-07T20:42:31.552Z,22.46
2023-05-07T20:45:02.159Z,22.46
2023-05-07T20:47:33.225Z,22.46
2023-05-07T20:50:01.600Z,22.46
2023-05-07T20:52:30.226Z,22.44
2023-05-07T20:54:58.888Z,22.44
2023-05-07T20:57:27.058Z,22.44
2023-05-07T20:59:55.263Z,22.43
2023-05-07T21:02:23.716Z,22.41
2023-05-07T21:04:52.549Z,22.40
2023-05-07T21:07:20.746Z,22.39
2023-05-07T21:09:49.395Z,22.39
2023-05-07T21:12:17.485Z,22.38
2023-05-07T21:14:45.731Z,22.37
2023-05-07T21:17:13.875Z,22.37
2023-05-07T21:19:42.215Z,22.37
2023-05-07T21:22:10.551Z,22.36
2023-05-07T21:24:39.327Z,22.37
2023-05-07T21:27:07.589Z,22.36
2023-05-07T21:29:36.200Z,22.36
2023-05-07T21:32:06.571Z,22.35
2023-05-07T21:34:36.025Z,22.34
2023-05-07T21:37:10.651Z,22.35
2023-05-07T21:39:59.476Z,22.34
2023-05-07T21:42:27.838Z,22.34
2023-05-07T21:44:56.172Z,22.34
2023-05-07T21:47:24.714Z,22.35
2023-05-07T21:49:52.904Z,22.36
2023-05-07T21:52:21.030Z,22.36
2023-05-07T21:54:52.748Z,22.35
2023-05-07T21:57:21.237Z,22.36
2023-05-07T21:59:49.274Z,22.36
2023-05-07T22:02:17.822Z,22.36
2023-05-07T22:04:45.959Z,22.34
2023-05-07T22:07:14.142Z,22.34
2023-05-07T22:09:42.287Z,22.32
2023-05-07T22:12:10.953Z,22.30
2023-05-07T22:14:39.680Z,22.29
2023-05-07T22:17:08.038Z,22.27
2023-05-07T22:19:36.343Z,22.26
2023-05-07T22:22:04.557Z,22.25
2023-05-07T22:24:33.355Z,22.24
2023-05-07T22:27:01.477Z,22.25
2023-05-07T22:29:29.556Z,22.24
2023-05-07T22:31:57.815Z,22.22
2023-05-07T22:34:25.919Z,22.21
2023-05-07T22:36:54.158Z,22.20
2023-05-07T22:39:22.477Z,22.19
2023-05-07T22:41:54.162Z,22.18
2023-05-07T22:44:22.394Z,22.15
2023-05-07T22:46:50.614Z,22.14
2023-05-07T22:49:18.973Z,22.12
2023-05-07T22:51:50.500Z,22.11
2023-05-07T22:54:18.831Z,22.09
2023-05-07T22:56:47.565Z,22.09
2023-05-07T22:59:16.913Z,22.07
2023-05-07T23:01:47.442Z,22.06
2023-05-07T23:04:15.870Z,22.04
2023-05-07T23:06:44.089Z,22.03
2023-05-07T23:09:12.407Z,22.03
2023-05-07T23:11:40.853Z,22.01
2023-05-07T23:14:09.561Z,21.99
2023-05-07T23:16:37.790Z,21.98
2023-05-07T23:19:05.932Z,21.96
2023-05-07T23:21:34.163Z,21.94
2023-05-07T23:24:02.428Z,21.91
2023-05-07T23:26:31.163Z,21.88
2023-05-07T23:28:59.902Z,21.86
2023-05-07T23:31:28.659Z,21.84
2023-05-07T23:33:56.854Z,21.82
2023-05-07T23:36:25.603Z,21.79
2023-05-07T23:38:54.258Z,21.77
2023-05-07T23:41:22.549Z,21.75
2023-05-07T23:43:50.716Z,21.73
2023-05-07T23:46:18.919Z,21.70
2023-05-07T23:48:47.058Z,21.68
2023-05-07T23:51:15.304Z,21.66
2023-05-07T23:53:43.393Z,21.64
2023-05-07T23:56:11.573Z,21.62
2023-05-07T23:58:39.880Z,21.59
